sensor_id;sensor_type;location;lat;lon;timestamp;temperature;humidity
796;DHT22;381;48.770;9.188;2022-10-15T00:03:30;15.70;99.90
796;DHT22;381;48.770;9.188;2022-10-15T00:08:33;15.70;99.90
796;DHT22;381;48.770;9.188;2022-10-15T00:13:35;15.70;99.90
796;DHT22;381;48.770;9.188;2022-10-15T00:18:39;15.70;99.90
796;DHT22;381;48.770;9.188;2022-10-15T00:23:42;15.70;99.90
796;DHT22;381;48.770;9.188;2022-10-15T00:28:44;15.70;99.90
796;DHT22;381;48.770;9.188;2022-10-15T00:33:49;15.70;99.90
796;DHT22;381;48.770;9.188;2022-10-15T00:38:52;15.70;99.90
796;DHT22;381;48.770;9.188;2022-10-15T00:43:55;15.80;99.90
796;DHT22;381;48.770;9.188;2022-10-15T00:49:02;15.80;99.90
796;DHT22;381;48.770;9.188;2022-10-15T00:54:05;15.80;99.90
796;DHT22;381;48.770;9.188;2022-10-15T00:59:08;15.80;99.90
796;DHT22;381;48.770;9.188;2022-10-15T01:04:13;15.80;99.90
796;DHT22;381;48.770;9.188;2022-10-15T01:09:17;15.80;99.90
796;DHT22;381;48.770;9.188;2022-10-15T01:14:27;15.80;99.90
796;DHT22;381;48.770;9.188;2022-10-15T01:19:58;15.90;99.90
796;DHT22;381;48.770;9.188;2022-10-15T01:25:14;15.90;99.90
796;DHT22;381;48.770;9.188;2022-10-15T01:30:28;15.90;99.90
796;DHT22;381;48.770;9.188;2022-10-15T01:35:40;15.90;99.90
796;DHT22;381;48.770;9.188;2022-10-15T01:40:49;15.90;99.90
796;DHT22;381;48.770;9.188;2022-10-15T01:45:57;15.90;99.90
796;DHT22;381;48.770;9.188;2022-10-15T01:51:16;15.90;99.90
796;DHT22;381;48.770;9.188;2022-10-15T01:56:21;15.90;99.90
796;DHT22;381;48.770;9.188;2022-10-15T02:06:31;15.90;99.90
796;DHT22;381;48.770;9.188;2022-10-15T02:17:07;16.00;99.90
796;DHT22;381;48.770;9.188;2022-10-15T02:22:13;16.00;99.90
796;DHT22;381;48.770;9.188;2022-10-15T02:27:19;16.00;99.90
796;DHT22;381;48.770;9.188;2022-10-15T02:32:26;16.00;99.90
796;DHT22;381;48.770;9.188;2022-10-15T02:37:30;16.00;99.90
796;DHT22;381;48.770;9.188;2022-10-15T02:42:36;16.00;99.90
796;DHT22;381;48.770;9.188;2022-10-15T02:47:43;16.00;99.90
796;DHT22;381;48.770;9.188;2022-10-15T02:52:45;16.00;99.90
796;DHT22;381;48.770;9.188;2022-10-15T02:57:47;16.00;99.90
796;DHT22;381;48.770;9.188;2022-10-15T03:02:51;16.00;99.90
796;DHT22;381;48.770;9.188;2022-10-15T03:07:54;16.10;99.90
796;DHT22;381;48.770;9.188;2022-10-15T03:13:01;16.10;99.90
796;DHT22;381;48.770;9.188;2022-10-15T03:18:07;16.10;99.90
796;DHT22;381;48.770;9.188;2022-10-15T03:23:09;16.10;99.90
796;DHT22;381;48.770;9.188;2022-10-15T03:28:12;16.20;99.90
796;DHT22;381;48.770;9.188;2022-10-15T03:33:17;16.20;99.90
796;DHT22;381;48.770;9.188;2022-10-15T03:38:20;16.20;99.90
796;DHT22;381;48.770;9.188;2022-10-15T03:43:24;16.20;99.90
796;DHT22;381;48.770;9.188;2022-10-15T03:48:28;16.30;99.90
796;DHT22;381;48.770;9.188;2022-10-15T03:53:31;16.30;99.90
796;DHT22;381;48.770;9.188;2022-10-15T03:58:33;16.30;99.90
796;DHT22;381;48.770;9.188;2022-10-15T04:03:40;16.30;99.90
796;DHT22;381;48.770;9.188;2022-10-15T04:08:43;16.30;99.90
796;DHT22;381;48.770;9.188;2022-10-15T04:13:57;16.40;99.90
796;DHT22;381;48.770;9.188;2022-10-15T04:19:01;16.40;99.90
796;DHT22;381;48.770;9.188;2022-10-15T04:24:03;16.40;99.90
796;DHT22;381;48.770;9.188;2022-10-15T04:29:15;16.40;99.90
796;DHT22;381;48.770;9.188;2022-10-15T04:34:19;16.50;99.90
796;DHT22;381;48.770;9.188;2022-10-15T04:39:22;16.50;99.90
796;DHT22;381;48.770;9.188;2022-10-15T04:44:25;16.50;99.90
796;DHT22;381;48.770;9.188;2022-10-15T04:49:34;16.50;99.90
796;DHT22;381;48.770;9.188;2022-10-15T04:54:43;16.50;99.90
796;DHT22;381;48.770;9.188;2022-10-15T04:59:45;16.50;99.90
796;DHT22;381;48.770;9.188;2022-10-15T05:05:05;16.50;99.90
796;DHT22;381;48.770;9.188;2022-10-15T05:10:14;16.50;99.90
796;DHT22;381;48.770;9.188;2022-10-15T05:15:16;16.50;99.90
796;DHT22;381;48.770;9.188;2022-10-15T05:20:24;16.50;99.90
796;DHT22;381;48.770;9.188;2022-10-15T05:25:28;16.60;99.90
796;DHT22;381;48.770;9.188;2022-10-15T05:30:30;16.60;99.90
796;DHT22;381;48.770;9.188;2022-10-15T05:35:40;16.60;99.90
796;DHT22;381;48.770;9.188;2022-10-15T05:40:49;16.60;99.90
796;DHT22;381;48.770;9.188;2022-10-15T05:45:55;16.60;99.90
796;DHT22;381;48.770;9.188;2022-10-15T05:51:01;16.60;99.90
796;DHT22;381;48.770;9.188;2022-10-15T05:56:05;16.60;99.90
796;DHT22;381;48.770;9.188;2022-10-15T06:01:09;16.60;99.90
796;DHT22;381;48.770;9.188;2022-10-15T06:06:15;16.50;99.90
796;DHT22;381;48.770;9.188;2022-10-15T06:11:18;16.50;99.90
796;DHT22;381;48.770;9.188;2022-10-15T06:16:20;16.50;99.90
796;DHT22;381;48.770;9.188;2022-10-15T06:21:24;16.50;99.90
796;DHT22;381;48.770;9.188;2022-10-15T06:26:26;16.50;99.90
796;DHT22;381;48.770;9.188;2022-10-15T06:31:28;16.50;99.90
796;DHT22;381;48.770;9.188;2022-10-15T06:36:32;16.60;99.90
796;DHT22;381;48.770;9.188;2022-10-15T06:41:34;16.60;99.90
796;DHT22;381;48.770;9.188;2022-10-15T06:46:37;16.60;99.90
796;DHT22;381;48.770;9.188;2022-10-15T06:51:40;16.60;99.90
796;DHT22;381;48.770;9.188;2022-10-15T06:56:42;16.60;99.90
796;DHT22;381;48.770;9.188;2022-10-15T07:01:44;16.60;99.90
796;DHT22;381;48.770;9.188;2022-10-15T07:06:47;16.50;99.90
796;DHT22;381;48.770;9.188;2022-10-15T07:11:53;16.60;99.90
796;DHT22;381;48.770;9.188;2022-10-15T07:16:56;16.60;99.90
796;DHT22;381;48.770;9.188;2022-10-15T07:22:00;16.60;99.90
796;DHT22;381;48.770;9.188;2022-10-15T07:27:02;16.60;99.90
796;DHT22;381;48.770;9.188;2022-10-15T07:32:05;16.60;99.90
796;DHT22;381;48.770;9.188;2022-10-15T07:37:08;16.70;99.90
796;DHT22;381;48.770;9.188;2022-10-15T07:42:10;16.70;99.90
796;DHT22;381;48.770;9.188;2022-10-15T07:47:12;16.90;99.90
796;DHT22;381;48.770;9.188;2022-10-15T07:52:16;17.00;99.90
796;DHT22;381;48.770;9.188;2022-10-15T07:57:18;17.00;99.90
796;DHT22;381;48.770;9.188;2022-10-15T08:02:21;17.00;99.90
796;DHT22;381;48.770;9.188;2022-10-15T08:07:25;17.00;99.90
796;DHT22;381;48.770;9.188;2022-10-15T08:12:27;17.00;99.90
796;DHT22;381;48.770;9.188;2022-10-15T08:17:29;16.90;99.90
796;DHT22;381;48.770;9.188;2022-10-15T08:22:33;16.80;99.90
796;DHT22;381;48.770;9.188;2022-10-15T08:27:36;16.80;99.90
796;DHT22;381;48.770;9.188;2022-10-15T08:32:38;16.90;99.90
796;DHT22;381;48.770;9.188;2022-10-15T08:37:41;17.00;99.90
796;DHT22;381;48.770;9.188;2022-10-15T08:42:45;17.10;99.90
796;DHT22;381;48.770;9.188;2022-10-15T08:47:50;17.20;99.90
796;DHT22;381;48.770;9.188;2022-10-15T08:52:56;17.30;99.90
796;DHT22;381;48.770;9.188;2022-10-15T08:58:02;17.40;99.90
796;DHT22;381;48.770;9.188;2022-10-15T09:03:26;17.40;99.90
796;DHT22;381;48.770;9.188;2022-10-15T09:08:37;17.40;99.90
796;DHT22;381;48.770;9.188;2022-10-15T09:13:42;17.40;99.90
796;DHT22;381;48.770;9.188;2022-10-15T09:18:47;17.50;99.90
796;DHT22;381;48.770;9.188;2022-10-15T09:23:54;17.50;99.90
796;DHT22;381;48.770;9.188;2022-10-15T09:29:02;17.60;99.90
796;DHT22;381;48.770;9.188;2022-10-15T09:34:13;17.60;99.90
796;DHT22;381;48.770;9.188;2022-10-15T09:39:35;17.60;99.90
796;DHT22;381;48.770;9.188;2022-10-15T09:44:43;17.70;99.90
796;DHT22;381;48.770;9.188;2022-10-15T09:49:46;17.80;99.90
796;DHT22;381;48.770;9.188;2022-10-15T09:54:58;17.90;99.90
796;DHT22;381;48.770;9.188;2022-10-15T10:00:09;18.00;99.90
796;DHT22;381;48.770;9.188;2022-10-15T10:05:27;18.20;99.90
796;DHT22;381;48.770;9.188;2022-10-15T10:10:32;18.40;99.90
796;DHT22;381;48.770;9.188;2022-10-15T10:15:39;18.70;99.90
796;DHT22;381;48.770;9.188;2022-10-15T10:20:53;18.90;99.90
796;DHT22;381;48.770;9.188;2022-10-15T10:26:01;19.00;99.90
796;DHT22;381;48.770;9.188;2022-10-15T10:31:05;19.10;99.90
796;DHT22;381;48.770;9.188;2022-10-15T10:36:20;19.10;99.90
796;DHT22;381;48.770;9.188;2022-10-15T10:41:46;19.10;99.90
796;DHT22;381;48.770;9.188;2022-10-15T10:47:08;19.10;99.90
796;DHT22;381;48.770;9.188;2022-10-15T10:52:28;19.00;99.90
796;DHT22;381;48.770;9.188;2022-10-15T10:57:38;19.10;99.90
796;DHT22;381;48.770;9.188;2022-10-15T11:02:42;19.30;99.90
796;DHT22;381;48.770;9.188;2022-10-15T11:07:49;19.50;99.90
796;DHT22;381;48.770;9.188;2022-10-15T11:13:05;19.70;99.90
796;DHT22;381;48.770;9.188;2022-10-15T11:18:22;19.70;99.90
796;DHT22;381;48.770;9.188;2022-10-15T11:23:41;19.80;99.90
796;DHT22;381;48.770;9.188;2022-10-15T11:28:54;19.80;99.90
796;DHT22;381;48.770;9.188;2022-10-15T11:34:11;19.60;99.90
796;DHT22;381;48.770;9.188;2022-10-15T11:39:32;19.50;99.90
796;DHT22;381;48.770;9.188;2022-10-15T11:44:52;19.40;99.90
796;DHT22;381;48.770;9.188;2022-10-15T11:50:09;19.30;99.90
796;DHT22;381;48.770;9.188;2022-10-15T11:55:18;19.40;99.90
796;DHT22;381;48.770;9.188;2022-10-15T12:00:30;19.50;99.90
796;DHT22;381;48.770;9.188;2022-10-15T12:05:36;19.60;99.90
796;DHT22;381;48.770;9.188;2022-10-15T12:10:54;19.60;99.90
796;DHT22;381;48.770;9.188;2022-10-15T12:16:15;19.50;99.90
796;DHT22;381;48.770;9.188;2022-10-15T12:21:34;19.50;99.90
796;DHT22;381;48.770;9.188;2022-10-15T12:26:37;19.50;99.90
796;DHT22;381;48.770;9.188;2022-10-15T12:31:45;19.60;99.90
796;DHT22;381;48.770;9.188;2022-10-15T12:36:58;19.60;99.90
796;DHT22;381;48.770;9.188;2022-10-15T12:42:01;19.50;99.90
796;DHT22;381;48.770;9.188;2022-10-15T12:47:04;19.50;99.90
796;DHT22;381;48.770;9.188;2022-10-15T12:57:53;19.40;99.90
796;DHT22;381;48.770;9.188;2022-10-15T13:08:26;19.20;99.90
796;DHT22;381;48.770;9.188;2022-10-15T13:13:31;19.00;99.90
796;DHT22;381;48.770;9.188;2022-10-15T13:18:36;18.90;99.90
796;DHT22;381;48.770;9.188;2022-10-15T13:23:44;18.80;99.90
796;DHT22;381;48.770;9.188;2022-10-15T13:28:49;18.80;99.90
796;DHT22;381;48.770;9.188;2022-10-15T13:33:56;18.70;99.90
796;DHT22;381;48.770;9.188;2022-10-15T13:39:03;18.60;99.90
796;DHT22;381;48.770;9.188;2022-10-15T13:44:17;18.50;99.90
796;DHT22;381;48.770;9.188;2022-10-15T13:49:21;18.50;99.90
796;DHT22;381;48.770;9.188;2022-10-15T13:54:28;18.40;99.90
796;DHT22;381;48.770;9.188;2022-10-15T13:59:31;18.30;99.90
796;DHT22;381;48.770;9.188;2022-10-15T14:04:35;18.30;99.90
796;DHT22;381;48.770;9.188;2022-10-15T14:09:38;18.20;99.90
796;DHT22;381;48.770;9.188;2022-10-15T14:14:43;18.20;99.90
796;DHT22;381;48.770;9.188;2022-10-15T14:19:49;18.20;99.90
796;DHT22;381;48.770;9.188;2022-10-15T14:24:53;18.20;99.90
796;DHT22;381;48.770;9.188;2022-10-15T14:29:58;18.20;99.90
796;DHT22;381;48.770;9.188;2022-10-15T14:35:02;18.20;99.90
796;DHT22;381;48.770;9.188;2022-10-15T14:40:15;18.10;99.90
796;DHT22;381;48.770;9.188;2022-10-15T14:45:20;18.10;99.90
796;DHT22;381;48.770;9.188;2022-10-15T14:50:28;18.20;99.90
796;DHT22;381;48.770;9.188;2022-10-15T14:55:32;18.20;99.90
796;DHT22;381;48.770;9.188;2022-10-15T15:00:40;18.20;99.90
796;DHT22;381;48.770;9.188;2022-10-15T15:05:46;18.30;99.90
796;DHT22;381;48.770;9.188;2022-10-15T15:10:49;18.30;99.90
796;DHT22;381;48.770;9.188;2022-10-15T15:15:52;18.30;99.90
796;DHT22;381;48.770;9.188;2022-10-15T15:20:59;18.40;99.90
796;DHT22;381;48.770;9.188;2022-10-15T15:26:02;18.40;99.90
796;DHT22;381;48.770;9.188;2022-10-15T15:31:06;18.40;99.90
796;DHT22;381;48.770;9.188;2022-10-15T15:36:12;18.40;99.90
796;DHT22;381;48.770;9.188;2022-10-15T15:41:16;18.50;99.90
796;DHT22;381;48.770;9.188;2022-10-15T15:46:18;18.50;99.90
796;DHT22;381;48.770;9.188;2022-10-15T15:51:24;18.50;99.90
796;DHT22;381;48.770;9.188;2022-10-15T15:56:27;18.50;99.90
796;DHT22;381;48.770;9.188;2022-10-15T16:01:29;18.50;99.90
796;DHT22;381;48.770;9.188;2022-10-15T16:06:33;18.40;99.90
796;DHT22;381;48.770;9.188;2022-10-15T16:11:36;18.30;99.90
796;DHT22;381;48.770;9.188;2022-10-15T16:16:39;18.30;99.90
796;DHT22;381;48.770;9.188;2022-10-15T16:21:42;18.20;99.90
796;DHT22;381;48.770;9.188;2022-10-15T16:26:44;18.10;99.90
796;DHT22;381;48.770;9.188;2022-10-15T16:31:50;18.10;99.90
796;DHT22;381;48.770;9.188;2022-10-15T16:36:53;18.10;99.90
796;DHT22;381;48.770;9.188;2022-10-15T16:41:55;18.00;99.90
796;DHT22;381;48.770;9.188;2022-10-15T16:46:57;17.90;99.90
796;DHT22;381;48.770;9.188;2022-10-15T16:52:01;17.90;99.90
796;DHT22;381;48.770;9.188;2022-10-15T16:57:03;17.90;99.90
796;DHT22;381;48.770;9.188;2022-10-15T17:02:05;17.80;99.90
796;DHT22;381;48.770;9.188;2022-10-15T17:07:08;17.80;99.90
796;DHT22;381;48.770;9.188;2022-10-15T17:12:10;17.80;99.90
796;DHT22;381;48.770;9.188;2022-10-15T17:17:12;17.90;99.90
796;DHT22;381;48.770;9.188;2022-10-15T17:22:16;17.90;99.90
796;DHT22;381;48.770;9.188;2022-10-15T17:27:18;17.90;99.90
796;DHT22;381;48.770;9.188;2022-10-15T17:32:20;17.80;99.90
796;DHT22;381;48.770;9.188;2022-10-15T17:37:23;17.80;99.90
796;DHT22;381;48.770;9.188;2022-10-15T17:42:25;17.80;99.90
796;DHT22;381;48.770;9.188;2022-10-15T17:47:28;17.80;99.90
796;DHT22;381;48.770;9.188;2022-10-15T17:52:32;17.80;99.90
796;DHT22;381;48.770;9.188;2022-10-15T17:57:34;17.70;99.90
796;DHT22;381;48.770;9.188;2022-10-15T18:02:36;17.70;99.90
796;DHT22;381;48.770;9.188;2022-10-15T18:07:43;17.70;99.90
796;DHT22;381;48.770;9.188;2022-10-15T18:12:45;17.70;99.90
796;DHT22;381;48.770;9.188;2022-10-15T18:17:47;17.70;99.90
796;DHT22;381;48.770;9.188;2022-10-15T18:22:51;17.70;99.90
796;DHT22;381;48.770;9.188;2022-10-15T18:27:54;17.70;99.90
796;DHT22;381;48.770;9.188;2022-10-15T18:32:56;17.70;99.90
796;DHT22;381;48.770;9.188;2022-10-15T18:37:59;17.70;99.90
796;DHT22;381;48.770;9.188;2022-10-15T18:43:01;17.80;99.90
796;DHT22;381;48.770;9.188;2022-10-15T18:48:04;17.80;99.90
796;DHT22;381;48.770;9.188;2022-10-15T18:53:07;17.80;99.90
796;DHT22;381;48.770;9.188;2022-10-15T18:58:10;17.80;99.90
796;DHT22;381;48.770;9.188;2022-10-15T19:03:12;17.80;99.90
796;DHT22;381;48.770;9.188;2022-10-15T19:08:15;17.80;99.90
796;DHT22;381;48.770;9.188;2022-10-15T19:13:17;17.80;99.90
796;DHT22;381;48.770;9.188;2022-10-15T19:18:19;17.80;99.90
796;DHT22;381;48.770;9.188;2022-10-15T19:23:22;17.80;99.90
796;DHT22;381;48.770;9.188;2022-10-15T19:28:25;17.80;99.90
796;DHT22;381;48.770;9.188;2022-10-15T19:33:29;17.80;99.90
796;DHT22;381;48.770;9.188;2022-10-15T19:38:33;17.80;99.90
796;DHT22;381;48.770;9.188;2022-10-15T19:43:35;17.90;99.90
796;DHT22;381;48.770;9.188;2022-10-15T19:48:37;17.80;99.90
796;DHT22;381;48.770;9.188;2022-10-15T19:53:41;17.80;99.90
796;DHT22;381;48.770;9.188;2022-10-15T19:58:43;17.80;99.90
796;DHT22;381;48.770;9.188;2022-10-15T20:03:45;17.80;99.90
796;DHT22;381;48.770;9.188;2022-10-15T20:08:48;17.80;99.90
796;DHT22;381;48.770;9.188;2022-10-15T20:13:51;17.80;99.90
796;DHT22;381;48.770;9.188;2022-10-15T20:18:53;17.80;99.90
796;DHT22;381;48.770;9.188;2022-10-15T20:23:57;17.80;99.90
796;DHT22;381;48.770;9.188;2022-10-15T20:29:03;17.90;99.90
796;DHT22;381;48.770;9.188;2022-10-15T20:34:05;17.90;99.90
796;DHT22;381;48.770;9.188;2022-10-15T20:39:09;17.90;99.90
796;DHT22;381;48.770;9.188;2022-10-15T20:44:11;17.90;99.90
796;DHT22;381;48.770;9.188;2022-10-15T20:49:15;17.90;99.90
796;DHT22;381;48.770;9.188;2022-10-15T20:54:19;17.90;99.90
796;DHT22;381;48.770;9.188;2022-10-15T20:59:22;17.80;99.90
796;DHT22;381;48.770;9.188;2022-10-15T21:04:24;17.80;99.90
796;DHT22;381;48.770;9.188;2022-10-15T21:09:27;17.80;99.90
796;DHT22;381;48.770;9.188;2022-10-15T21:14:29;17.70;99.90
796;DHT22;381;48.770;9.188;2022-10-15T21:19:31;17.70;99.90
796;DHT22;381;48.770;9.188;2022-10-15T21:24:35;17.70;99.90
796;DHT22;381;48.770;9.188;2022-10-15T21:29:38;17.70;99.90
796;DHT22;381;48.770;9.188;2022-10-15T21:34:41;17.70;99.90
796;DHT22;381;48.770;9.188;2022-10-15T21:39:45;17.70;99.90
796;DHT22;381;48.770;9.188;2022-10-15T21:44:47;17.60;99.90
796;DHT22;381;48.770;9.188;2022-10-15T21:49:49;17.60;99.90
796;DHT22;381;48.770;9.188;2022-10-15T21:54:53;17.60;99.90
796;DHT22;381;48.770;9.188;2022-10-15T21:59:55;17.60;99.90
796;DHT22;381;48.770;9.188;2022-10-15T22:04:57;17.60;99.90
796;DHT22;381;48.770;9.188;2022-10-15T22:10:01;17.60;99.90
796;DHT22;381;48.770;9.188;2022-10-15T22:15:03;17.50;99.90
796;DHT22;381;48.770;9.188;2022-10-15T22:20:07;17.50;99.90
796;DHT22;381;48.770;9.188;2022-10-15T22:25:10;17.50;99.90
796;DHT22;381;48.770;9.188;2022-10-15T22:30:12;17.50;99.90
796;DHT22;381;48.770;9.188;2022-10-15T22:35:14;17.40;99.90
796;DHT22;381;48.770;9.188;2022-10-15T22:40:17;17.40;99.90
796;DHT22;381;48.770;9.188;2022-10-15T22:45:20;17.40;99.90
796;DHT22;381;48.770;9.188;2022-10-15T22:50:22;17.40;99.90
796;DHT22;381;48.770;9.188;2022-10-15T22:55:29;17.40;99.90
796;DHT22;381;48.770;9.188;2022-10-15T23:00:31;17.40;99.90
796;DHT22;381;48.770;9.188;2022-10-15T23:05:33;17.40;99.90
796;DHT22;381;48.770;9.188;2022-10-15T23:10:36;17.40;99.90
796;DHT22;381;48.770;9.188;2022-10-15T23:15:38;17.40;99.90
796;DHT22;381;48.770;9.188;2022-10-15T23:20:40;17.40;99.90
796;DHT22;381;48.770;9.188;2022-10-15T23:25:44;17.40;99.90
796;DHT22;381;48.770;9.188;2022-10-15T23:30:46;17.30;99.90
796;DHT22;381;48.770;9.188;2022-10-15T23:35:56;17.30;99.90
796;DHT22;381;48.770;9.188;2022-10-15T23:41:01;17.30;99.90
796;DHT22;381;48.770;9.188;2022-10-15T23:46:06;17.30;99.90
796;DHT22;381;48.770;9.188;2022-10-15T23:51:12;17.30;99.90
796;DHT22;381;48.770;9.188;2022-10-15T23:56:19;17.30;99.90
